Time;durP1;ratioP1;P1;durP2;ratioP2;P2;SDS_P1;SDS_P2;PMS_P1;PMS_P2;Temp;Humidity;BMP_temperature;BMP_pressure;BME280_temperature;BME280_humidity;BME280_pressure;Samples;Min_cycle;Max_cycle;Signal;HPM_P1;HPM_P2
2022/06/08 00:02:14;;;;;;;2.88;2.00;;;17.50;99.90;;;-141.84;63.17;18994.88;5071696;28;20201;-58
2022/06/08 00:04:42;;;;;;;2.17;2.00;;;17.50;99.90;;;-141.84;63.30;18982.69;5071549;28;20288;-58
2022/06/08 00:07:11;;;;;;;2.45;1.85;;;17.40;99.90;;;-141.84;63.43;18996.91;5071163;28;20220;-60
2022/06/08 00:09:41;;;;;;;2.72;1.70;;;17.40;99.90;;;-141.84;63.39;18988.78;5070393;28;20311;-57
2022/06/08 00:12:11;;;;;;;3.30;1.90;;;17.30;99.90;;;-141.84;63.94;18944.09;5070865;28;20221;-58
2022/06/08 00:14:40;;;;;;;1.88;1.60;;;17.20;99.90;;;-141.84;64.39;18950.19;5071045;28;20251;-58
2022/06/08 00:17:08;;;;;;;2.00;1.77;;;17.10;99.90;;;-141.84;64.44;18919.69;5071211;28;21054;-59
2022/06/08 00:19:37;;;;;;;2.03;1.63;;;17.10;99.90;;;-141.84;64.25;18925.81;5070685;28;20576;-59
2022/06/08 00:22:06;;;;;;;1.85;1.75;;;17.10;99.90;;;-141.84;64.76;18933.94;5070789;28;20227;-59
2022/06/08 00:24:34;;;;;;;1.88;1.73;;;17.10;99.90;;;-141.84;64.22;18940.03;5070889;28;20271;-57
2022/06/08 00:27:05;;;;;;;1.90;1.50;;;17.00;99.90;;;-141.84;64.73;18925.81;5070620;28;20224;-58
2022/06/08 00:29:33;;;;;;;2.67;2.00;;;17.00;99.90;;;-141.84;64.96;18893.28;5070915;28;20280;-58
2022/06/08 00:32:02;;;;;;;2.95;1.75;;;17.00;99.90;;;-141.84;65.03;18907.50;5071221;28;20244;-59
2022/06/08 00:34:30;;;;;;;1.63;1.52;;;17.00;99.90;;;-141.84;65.06;18895.31;5070294;28;20247;-59
2022/06/08 00:36:58;;;;;;;3.50;2.33;;;17.00;99.90;;;-141.84;65.52;18921.75;5070594;28;20319;-57
2022/06/08 00:39:27;;;;;;;6.47;1.90;;;17.00;99.90;;;-141.84;65.70;18905.47;5051290;28;20240;-59
2022/06/08 00:42:00;;;;;;;1.67;1.58;;;17.00;99.90;;;-141.84;66.08;18887.19;5050137;28;20284;-58
2022/06/08 00:44:37;;;;;;;2.78;1.52;;;16.90;99.90;;;-141.84;66.01;18891.25;5050701;28;20217;-60
2022/06/08 00:47:10;;;;;;;2.28;1.80;;;16.90;99.90;;;-141.84;66.59;18899.38;5051116;28;20188;-59
2022/06/08 00:49:48;;;;;;;2.40;1.83;;;16.90;99.90;;;-141.84;64.83;18931.91;5050492;28;20347;-60
2022/06/08 00:52:17;;;;;;;2.83;1.70;;;17.00;99.90;;;-141.84;65.43;18887.19;5050409;28;20247;-59
2022/06/08 00:54:51;;;;;;;2.10;1.73;;;17.00;99.90;;;-141.84;66.24;18872.97;5049953;28;20237;-59
2022/06/08 00:57:26;;;;;;;1.83;1.70;;;17.00;99.90;;;-141.84;66.35;18895.31;5050263;28;20233;-58
2022/06/08 01:00:01;;;;;;;1.50;1.40;;;17.10;99.90;;;-141.84;65.46;18893.28;5050348;28;20307;-57
2022/06/08 01:02:29;;;;;;;1.70;1.60;;;17.10;99.90;;;-141.84;65.65;18909.53;5055261;28;20299;-59
2022/06/08 01:05:18;;;;;;;1.95;1.50;;;17.10;99.90;;;-141.84;66.33;18903.44;5070809;28;20246;-58
2022/06/08 01:07:48;;;;;;;2.00;1.80;;;17.10;99.90;;;-141.84;65.96;18944.09;5067435;28;20227;-57
2022/06/08 01:10:20;;;;;;;1.60;1.50;;;17.10;99.90;;;-141.84;66.52;18899.38;5070274;28;20314;-57
2022/06/08 01:12:50;;;;;;;1.50;1.40;;;17.20;99.90;;;-141.84;66.57;18897.34;5070325;28;20247;-58
2022/06/08 01:15:24;;;;;;;1.60;1.50;;;17.20;99.90;;;-141.84;66.43;18860.78;5070223;28;20304;-58
2022/06/08 01:17:52;;;;;;;1.55;1.45;;;17.10;99.90;;;-141.84;65.63;18913.59;5070473;28;20224;-59
2022/06/08 01:20:21;;;;;;;2.80;1.50;;;17.10;99.90;;;-141.84;66.23;18879.06;5070239;28;20197;-58
2022/06/08 01:22:51;;;;;;;1.85;1.48;;;17.10;99.90;;;-141.84;66.70;18883.13;5070596;28;20724;-58
2022/06/08 01:25:21;;;;;;;1.33;1.17;;;17.20;99.90;;;-141.84;66.11;18950.19;5069971;28;20657;-59
2022/06/08 01:28:10;;;;;;;1.63;1.30;;;17.20;99.90;;;-141.84;65.75;18895.31;5069931;28;20240;-59
2022/06/08 01:30:51;;;;;;;1.45;1.30;;;17.20;99.90;;;-141.84;66.03;18879.06;5069772;28;20213;-59
2022/06/08 01:34:07;;;;;;;1.40;1.30;;;17.10;99.90;;;-141.84;66.21;18946.13;5070079;28;20251;-59
2022/06/08 01:37:11;;;;;;;2.17;1.52;;;17.10;99.90;;;-141.84;65.90;18891.25;5070076;28;20311;-59
2022/06/08 01:39:59;;;;;;;2.10;1.60;;;17.10;99.90;;;-141.84;64.69;18917.66;5049801;28;20221;-58
2022/06/08 01:43:01;;;;;;;2.95;1.50;;;17.10;99.90;;;-141.84;65.79;18907.50;5049735;28;20229;-59
2022/06/08 01:45:54;;;;;;;1.50;1.40;;;17.00;99.90;;;-141.84;66.00;18889.22;5049734;28;20456;-58
2022/06/08 01:49:14;;;;;;;1.42;1.33;;;17.00;99.90;;;-141.84;66.88;18858.75;5049946;28;20233;-58
2022/06/08 01:52:08;;;;;;;1.30;1.20;;;16.90;99.90;;;-141.84;67.32;18872.97;5049700;28;20320;-58
2022/06/08 01:55:07;;;;;;;1.65;1.40;;;16.90;99.90;;;-141.84;68.45;18879.06;5052919;28;20225;-59
2022/06/08 01:58:05;;;;;;;1.48;1.38;;;16.70;99.90;;;-141.84;69.87;18797.78;5053421;28;20225;-60
2022/06/08 02:00:43;;;;;;;1.80;1.52;;;16.60;99.90;;;-141.84;70.50;18793.72;5050015;28;20763;-57
2022/06/08 02:03:24;;;;;;;3.58;1.30;;;16.50;99.90;;;-141.84;71.20;18757.16;5073429;28;20311;-58
2022/06/08 02:06:04;;;;;;;1.83;1.40;;;16.50;99.90;;;-141.84;72.00;18747.00;5073316;28;20220;-58
2022/06/08 02:08:41;;;;;;;2.20;1.45;;;16.40;99.90;;;-141.84;72.66;18740.91;5064492;28;20197;-60
2022/06/08 02:11:21;;;;;;;1.50;1.40;;;16.30;99.90;;;-141.84;72.55;18712.47;5054013;28;20199;-58
2022/06/08 02:13:56;;;;;;;1.67;1.40;;;16.20;99.90;;;-141.84;72.38;18753.09;5053755;28;20236;-58
2022/06/08 02:16:34;;;;;;;1.75;1.38;;;16.20;99.90;;;-141.84;72.43;18722.63;5053115;28;20773;-59
2022/06/08 02:19:12;;;;;;;1.88;1.50;;;16.10;99.90;;;-141.84;72.48;18734.81;5053128;28;20231;-59
2022/06/08 02:21:47;;;;;;;1.52;1.42;;;16.20;99.90;;;-141.84;71.49;18755.13;5052944;28;20704;-58
2022/06/08 02:24:22;;;;;;;2.70;1.40;;;16.20;99.90;;;-141.84;71.90;18734.81;5053192;28;20435;-58
2022/06/08 02:26:59;;;;;;;1.52;1.42;;;16.30;99.90;;;-141.84;72.34;18749.03;5057719;28;20681;-58
2022/06/08 02:29:36;;;;;;;1.40;1.30;;;16.30;99.90;;;-141.84;72.12;18744.97;5073181;28;20231;-57
2022/06/08 02:34:27;;;;;;;2.60;1.35;;;16.30;99.90;;;-141.84;70.29;18757.16;5073496;28;20276;-59
2022/06/08 02:35:08;;;;;;;1.40;1.30;;;16.40;99.90;;;-141.84;72.11;18751.06;5073580;28;20225;-59
2022/06/08 02:37:40;;;;;;;1.80;1.40;;;16.40;99.90;;;-141.84;73.35;18702.28;5072597;28;20795;-57
2022/06/08 02:40:13;;;;;;;1.45;1.35;;;16.30;99.90;;;-141.84;74.08;18722.63;5072492;28;20224;-59
2022/06/08 02:42:47;;;;;;;1.60;1.50;;;16.20;99.90;;;-141.84;74.99;18657.59;5072468;28;20712;-58
2022/06/08 02:45:21;;;;;;;1.60;1.50;;;16.20;99.90;;;-141.84;74.40;18671.81;5072822;28;20316;-59
2022/06/08 02:47:56;;;;;;;1.50;1.40;;;16.10;99.90;;;-141.84;74.54;18690.09;5073066;28;20236;-59
2022/06/08 02:50:27;;;;;;;1.50;1.40;;;16.00;99.90;;;-141.84;75.15;18639.31;5072935;28;20287;-56
2022/06/08 02:53:29;;;;;;;1.42;1.33;;;16.00;99.90;;;-141.84;75.71;18663.69;5073044;28;20712;-57
2022/06/08 02:56:13;;;;;;;1.40;1.30;;;15.90;99.90;;;-141.84;76.01;18639.31;5072556;28;20290;-59
2022/06/08 02:58:50;;;;;;;2.50;1.60;;;15.80;99.90;;;-141.84;75.63;18627.13;5072719;28;20228;-59
2022/06/08 03:01:29;;;;;;;1.40;1.30;;;15.80;99.90;;;-141.84;75.52;18643.38;5072339;28;20224;-59
2022/06/08 03:04:09;;;;;;;1.90;1.60;;;15.70;99.90;;;-141.84;76.41;18651.50;5072292;28;20307;-58
2022/06/08 03:06:46;;;;;;;2.85;1.60;;;15.70;99.90;;;-141.84;76.93;18606.81;5071683;28;20274;-59
2022/06/08 03:09:18;;;;;;;1.50;1.40;;;15.60;99.90;;;-141.84;77.50;18635.25;5057441;28;20231;-61
2022/06/08 03:11:54;;;;;;;2.13;1.50;;;15.60;99.90;;;-141.84;78.25;18598.69;5052111;28;20260;-61
2022/06/08 03:14:24;;;;;;;1.77;1.60;;;15.60;99.90;;;-141.84;76.99;18684.00;5052151;28;20713;-57
2022/06/08 03:16:58;;;;;;;3.13;1.55;;;15.70;99.90;;;-141.84;77.99;18623.06;5052506;28;20669;-59
2022/06/08 03:19:30;;;;;;;2.25;1.35;;;15.70;99.90;;;-141.84;78.21;18592.59;5052262;28;20312;-60
2022/06/08 03:21:58;;;;;;;3.65;1.38;;;15.70;99.90;;;-141.84;79.01;18584.47;5052212;28;20309;-59
2022/06/08 03:24:27;;;;;;;1.70;1.60;;;15.60;99.90;;;-141.84;78.98;18606.81;5068156;28;20228;-59
2022/06/08 03:27:00;;;;;;;3.30;1.55;;;15.70;99.90;;;-141.84;79.41;18604.78;5071737;28;20223;-59
2022/06/08 03:29:31;;;;;;;1.60;1.50;;;15.70;99.90;;;-141.84;79.37;18576.31;5072022;28;20192;-59
2022/06/08 03:31:59;;;;;;;2.17;1.85;;;15.70;99.90;;;-141.84;79.98;18586.50;5072410;28;20204;-59
2022/06/08 03:34:27;;;;;;;1.77;1.65;;;15.60;99.90;;;-141.84;79.80;18570.22;5071551;28;20630;-59
2022/06/08 03:36:56;;;;;;;3.08;1.70;;;15.70;99.90;;;-141.84;79.90;18570.22;5071733;28;20232;-59
2022/06/08 03:39:24;;;;;;;1.65;1.55;;;15.70;99.90;;;-141.84;79.98;18582.44;5071425;28;20237;-58
2022/06/08 03:41:52;;;;;;;2.22;1.75;;;15.70;99.90;;;-141.84;79.22;18602.75;5071285;28;20316;-57
2022/06/08 03:44:20;;;;;;;1.88;1.52;;;15.70;99.90;;;-141.84;79.58;18590.56;5071326;28;20296;-57
2022/06/08 03:46:55;;;;;;;3.03;1.65;;;15.70;99.90;;;-141.84;79.73;18562.09;5072263;28;20259;-58
2022/06/08 03:49:25;;;;;;;1.50;1.40;;;15.70;99.90;;;-141.84;79.37;18578.38;5071391;28;20242;-57
2022/06/08 03:52:00;;;;;;;1.88;1.50;;;15.80;99.90;;;-141.84;78.06;18643.38;5071419;28;20401;-57
2022/06/08 03:54:37;;;;;;;1.98;1.40;;;15.90;99.90;;;-141.84;78.56;18627.13;5071054;28;20689;-57
2022/06/08 03:57:08;;;;;;;1.95;1.63;;;15.90;99.90;;;-141.84;78.60;18602.75;5071103;28;20334;-58
2022/06/08 03:59:40;;;;;;;1.80;1.30;;;15.90;99.90;;;-141.84;78.10;18604.78;5071008;28;20303;-56
2022/06/08 04:02:11;;;;;;;3.67;1.88;;;16.00;99.90;;;-141.84;77.39;18627.13;5071838;28;20195;-57
2022/06/08 04:04:40;;;;;;;1.70;1.60;;;16.00;99.90;;;-141.84;77.77;18623.06;5070894;28;20224;-56
2022/06/08 04:07:09;;;;;;;2.70;2.00;;;16.00;99.90;;;-141.84;78.01;18669.78;5071159;28;20235;-56
2022/06/08 04:09:38;;;;;;;2.97;2.03;;;16.10;99.90;;;-141.84;78.37;18614.94;5052913;28;20221;-56
2022/06/08 04:12:07;;;;;;;3.88;1.80;;;16.10;99.90;;;-141.84;77.76;18637.28;5050737;28;20721;-56
2022/06/08 04:14:36;;;;;;;3.13;2.00;;;16.10;99.90;;;-141.84;77.19;18633.22;5050969;28;20862;-58
2022/06/08 04:17:07;;;;;;;3.90;2.10;;;16.20;99.90;;;-141.84;76.40;18671.81;5051318;28;20209;-59
2022/06/08 04:19:37;;;;;;;4.57;2.20;;;16.20;99.90;;;-141.84;76.41;18645.41;5057824;28;20227;-57
2022/06/08 04:22:05;;;;;;;2.35;2.10;;;16.20;99.90;;;-141.84;76.32;18641.34;5070710;28;20239;-56
2022/06/08 04:24:33;;;;;;;2.35;2.08;;;16.30;99.90;;;-141.84;76.93;18698.22;5070659;28;20238;-58
2022/06/08 04:27:04;;;;;;;2.53;1.90;;;16.30;99.90;;;-141.84;76.15;18653.53;5070664;28;20228;-58
2022/06/08 04:29:32;;;;;;;3.25;1.90;;;16.40;99.90;;;-141.84;76.69;18631.19;5070667;28;20196;-59
2022/06/08 04:32:00;;;;;;;3.90;2.33;;;16.40;99.90;;;-141.84;75.30;18649.47;5071179;28;20207;-58
2022/06/08 04:34:29;;;;;;;3.40;2.10;;;16.50;99.90;;;-141.84;75.25;18692.13;5070345;28;20221;-58
2022/06/08 04:36:59;;;;;;;2.22;1.75;;;16.50;99.90;;;-141.84;73.95;18696.19;5070401;28;20311;-56
2022/06/08 04:39:27;;;;;;;3.10;2.05;;;16.60;99.90;;;-141.84;73.38;18712.47;5070420;28;20224;-59
2022/06/08 04:41:56;;;;;;;2.00;1.90;;;16.70;99.90;;;-141.84;72.02;18749.03;5070193;28;20227;-58
2022/06/08 04:44:25;;;;;;;2.22;2.03;;;16.80;99.90;;;-141.84;71.22;18751.06;5070631;28;20287;-59
2022/06/08 04:46:53;;;;;;;3.35;2.10;;;16.90;99.90;;;-141.84;68.78;18807.94;5071160;28;20201;-58
2022/06/08 04:49:21;;;;;;;2.35;2.05;;;17.00;99.90;;;-141.84;65.64;18901.41;5070167;28;20225;-57
2022/06/08 04:51:50;;;;;;;2.80;1.88;;;17.40;99.90;;;-141.84;53.76;19344.41;5070417;28;20242;-59
2022/06/08 04:54:19;;;;;;;2.40;1.63;;;18.80;99.90;;;-141.84;48.40;19683.78;5070244;28;20235;-57
2022/06/08 04:56:47;;;;;;;6.00;1.75;;;20.50;99.90;;;-141.84;42.92;20065.84;5070173;28;20225;-58
2022/06/08 04:59:15;;;;;;;1.80;1.70;;;22.30;99.90;;;-141.84;39.11;20411.41;5070349;28;20221;-59
2022/06/08 05:01:44;;;;;;;1.60;1.50;;;23.20;99.90;;;-141.84;36.40;20730.53;5070677;28;20211;-57
2022/06/08 05:04:12;;;;;;;2.70;1.60;;;24.30;99.90;;;-141.84;35.65;20828.13;5070244;28;20239;-58
2022/06/08 05:06:40;;;;;;;1.65;1.40;;;25.30;99.90;;;-141.84;35.22;20923.66;5070272;28;20320;-58
2022/06/08 05:09:08;;;;;;;2.88;1.60;;;25.80;99.90;;;-141.84;34.00;21065.97;5055941;28;20221;-62
2022/06/08 05:11:37;;;;;;;1.67;1.58;;;26.00;99.90;;;-141.84;33.68;21169.66;5050008;28;20710;-59
2022/06/08 05:14:06;;;;;;;1.30;1.20;;;26.60;99.90;;;-141.84;32.31;21381.09;5050707;28;20209;-59
2022/06/08 05:16:34;;;;;;;1.40;1.30;;;26.30;99.90;;;-141.84;32.78;21299.78;5063139;28;20575;-59
2022/06/08 05:19:02;;;;;;;1.50;1.40;;;26.80;99.90;;;-141.84;32.60;21342.47;5069909;28;20236;-57
2022/06/08 05:21:31;;;;;;;2.60;1.88;;;26.50;99.90;;;-141.84;32.36;21403.47;5069864;28;20221;-59
2022/06/08 05:24:07;;;;;;;3.35;1.52;;;26.20;99.90;;;-141.84;32.92;21303.84;5070056;28;20224;-59
2022/06/08 05:26:36;;;;;;;2.40;1.50;;;26.00;99.90;;;-141.84;32.92;21206.25;5070008;28;20255;-59
2022/06/08 05:29:05;;;;;;;2.13;1.52;;;26.10;99.90;;;-141.84;33.80;21065.97;5073045;28;20265;-59
2022/06/08 05:31:33;;;;;;;1.83;1.48;;;25.70;99.90;;;-141.84;35.17;20933.81;5074131;28;20619;-58
2022/06/08 05:34:01;;;;;;;2.05;1.20;;;25.50;99.90;;;-141.84;36.18;20752.91;5074064;28;20228;-57
2022/06/08 05:36:29;;;;;;;1.55;1.30;;;25.00;99.90;;;-141.84;38.00;20557.75;5074032;28;20235;-57
2022/06/08 05:38:58;;;;;;;3.30;1.58;;;24.50;99.90;;;-141.84;39.92;20370.75;5074213;28;20231;-57
2022/06/08 05:41:26;;;;;;;2.08;1.42;;;23.90;99.90;;;-141.84;42.32;20177.66;5073300;28;20319;-59
2022/06/08 05:43:56;;;;;;;3.10;1.50;;;23.40;99.90;;;-141.84;44.96;19968.31;5074640;28;20567;-55
2022/06/08 05:46:24;;;;;;;1.98;1.65;;;22.80;99.90;;;-141.84;46.74;19870.75;5073648;28;20319;-57
2022/06/08 05:48:52;;;;;;;1.70;1.40;;;22.50;99.90;;;-141.84;47.48;19769.13;5073622;28;20224;-58
2022/06/08 05:51:20;;;;;;;2.33;1.52;;;22.10;99.90;;;-141.84;48.71;19695.97;5073691;28;20227;-58
2022/06/08 05:53:48;;;;;;;2.80;1.60;;;21.90;99.90;;;-141.84;49.98;19649.22;5073621;28;20311;-58
2022/06/08 05:56:17;;;;;;;1.58;1.45;;;21.60;99.90;;;-141.84;50.60;19606.53;5073359;28;20216;-56
2022/06/08 05:58:45;;;;;;;2.25;1.60;;;21.50;99.90;;;-141.84;51.04;19590.28;5074321;28;20211;-58
2022/06/08 06:01:15;;;;;;;2.78;1.52;;;21.40;99.90;;;-141.84;52.11;19517.13;5073262;28;20228;-57
2022/06/08 06:03:43;;;;;;;1.60;1.50;;;21.30;99.90;;;-141.84;52.89;19543.53;5073461;28;20315;-58
2022/06/08 06:06:11;;;;;;;1.88;1.40;;;21.30;99.90;;;-141.84;53.23;19531.34;5073275;28;20248;-56
2022/06/08 06:08:41;;;;;;;2.95;1.50;;;21.40;99.90;;;-141.84;52.49;19523.22;5063356;28;20228;-59
2022/06/08 06:11:10;;;;;;;1.75;1.60;;;21.40;99.90;;;-141.84;52.77;19537.44;5053735;28;20289;-58
2022/06/08 06:13:38;;;;;;;2.30;1.50;;;21.40;99.90;;;-141.84;53.98;19492.75;5072923;28;20279;-57
2022/06/08 06:16:07;;;;;;;2.95;1.45;;;21.30;99.90;;;-141.84;53.40;19506.97;5073034;28;20659;-58
2022/06/08 06:18:37;;;;;;;3.45;1.50;;;21.40;99.90;;;-141.84;53.66;19468.34;5073423;28;20220;-55
2022/06/08 06:21:06;;;;;;;3.05;2.85;;;21.40;99.90;;;-141.84;53.60;19470.38;5073169;28;20259;-57
2022/06/08 06:23:34;;;;;;;1.55;1.45;;;21.30;99.90;;;-141.84;53.53;19529.31;5073304;28;20317;-58
2022/06/08 06:26:02;;;;;;;1.70;1.60;;;21.50;99.90;;;-141.84;53.04;19515.09;5073554;28;20204;-56
2022/06/08 06:28:31;;;;;;;1.67;1.50;;;21.60;99.90;;;-141.84;53.44;19496.81;5073044;28;20592;-58
2022/06/08 06:30:59;;;;;;;1.65;1.55;;;21.60;99.90;;;-141.84;53.04;19521.19;5072840;28;20239;-55
2022/06/08 06:33:27;;;;;;;1.73;1.60;;;21.50;99.90;;;-141.84;53.71;19476.47;5072765;28;20771;-58
2022/06/08 06:35:57;;;;;;;1.67;1.50;;;21.50;99.90;;;-141.84;53.35;19498.84;5072531;28;20299;-58
2022/06/08 06:38:25;;;;;;;1.75;1.55;;;21.60;99.90;;;-141.84;52.97;19547.59;5072329;28;20201;-56
2022/06/08 06:40:53;;;;;;;1.67;1.50;;;21.70;99.90;;;-141.84;53.14;19502.91;5072494;28;20224;-56
2022/06/08 06:43:21;;;;;;;1.85;1.30;;;21.70;99.90;;;-141.84;52.20;19565.91;5072237;28;20304;-56
2022/06/08 06:45:49;;;;;;;2.30;1.60;;;21.80;99.90;;;-141.84;52.66;19527.28;5072092;28;20259;-57
2022/06/08 06:48:18;;;;;;;1.60;1.50;;;21.70;99.90;;;-141.84;52.11;19553.72;5072352;28;20282;-57
2022/06/08 06:50:46;;;;;;;3.20;1.90;;;21.70;99.90;;;-141.84;52.77;19476.47;5072396;28;20231;-56
2022/06/08 06:53:16;;;;;;;1.88;1.50;;;21.50;99.90;;;-141.84;53.79;19476.47;5072649;28;20236;-56
2022/06/08 06:55:44;;;;;;;2.22;1.60;;;21.40;99.90;;;-141.84;53.89;19498.84;5072729;28;20288;-55
2022/06/08 06:58:12;;;;;;;1.70;1.60;;;21.50;99.90;;;-141.84;53.03;19547.59;5072191;28;20624;-56
2022/06/08 07:00:40;;;;;;;2.42;1.63;;;21.60;99.90;;;-141.84;52.78;19523.22;5072169;28;20263;-58
2022/06/08 07:03:09;;;;;;;2.47;1.80;;;21.60;99.90;;;-141.84;53.32;19523.22;5072093;28;20604;-57
2022/06/08 07:05:38;;;;;;;2.08;1.50;;;21.50;99.90;;;-141.84;52.68;19547.59;5072328;28;20572;-58
2022/06/08 07:08:07;;;;;;;1.60;1.50;;;21.70;99.90;;;-141.84;51.93;19596.38;5072101;28;20197;-59
2022/06/08 07:10:37;;;;;;;2.35;1.70;;;21.80;99.90;;;-141.84;52.05;19572.00;5071850;28;20225;-58
2022/06/08 07:13:06;;;;;;;1.60;1.50;;;21.80;99.90;;;-141.84;51.83;19576.06;5071962;28;20311;-60
2022/06/08 07:15:34;;;;;;;1.42;1.33;;;21.80;99.90;;;-141.84;52.15;19537.44;5072097;28;20272;-59
2022/06/08 07:18:03;;;;;;;2.75;1.42;;;21.90;99.90;;;-141.84;51.18;19578.09;5071985;28;20236;-57
2022/06/08 07:20:31;;;;;;;1.98;1.40;;;22.10;99.90;;;-141.84;50.50;19639.06;5071990;28;20339;-58
2022/06/08 07:22:59;;;;;;;2.75;1.35;;;22.20;99.90;;;-141.84;48.96;19700.03;5072430;28;20219;-55
2022/06/08 07:25:27;;;;;;;1.42;1.33;;;22.40;99.90;;;-141.84;49.12;19756.94;5071724;28;20340;-56
2022/06/08 07:27:57;;;;;;;2.92;1.58;;;22.60;99.90;;;-141.84;47.88;19785.38;5071628;28;20248;-55
2022/06/08 07:30:25;;;;;;;3.33;1.42;;;22.70;99.90;;;-141.84;48.00;19734.56;5071855;28;20255;-56
2022/06/08 07:32:53;;;;;;;1.50;1.40;;;22.80;99.90;;;-141.84;48.51;19781.31;5071654;28;20227;-54
2022/06/08 07:35:21;;;;;;;1.60;1.13;;;22.70;99.90;;;-141.84;48.24;19736.59;5071454;28;20665;-57
2022/06/08 07:37:49;;;;;;;2.03;1.20;;;22.70;99.90;;;-141.84;48.17;19714.25;5072036;28;20784;-57
2022/06/08 07:40:17;;;;;;;2.35;1.17;;;22.50;99.90;;;-141.84;49.93;19630.94;5071282;28;20315;-55
2022/06/08 07:42:45;;;;;;;1.23;1.00;;;22.20;99.90;;;-141.84;49.50;19659.38;5071047;28;20302;-58
2022/06/08 07:45:15;;;;;;;1.13;1.02;;;22.10;99.90;;;-141.84;48.91;19689.88;5071606;28;20407;-59
2022/06/08 07:50:30;;;;;;;1.00;0.90;;;22.30;99.90;;;-141.84;48.50;19695.97;5071005;28;20284;-58
2022/06/08 07:52:58;;;;;;;1.48;1.13;;;22.20;99.90;;;-141.84;49.00;19687.84;5071456;28;20207;-59
2022/06/08 07:55:26;;;;;;;3.17;1.10;;;22.10;99.90;;;-141.84;48.80;19679.72;5071099;28;20225;-57
2022/06/08 07:57:54;;;;;;;1.48;0.80;;;22.10;99.90;;;-141.84;48.05;19728.47;5070613;28;20233;-58
2022/06/08 08:00:26;;;;;;;0.80;0.80;;;22.10;99.90;;;-141.84;48.55;19698.00;5071219;28;20260;-56
2022/06/08 08:02:54;;;;;;;0.75;0.73;;;22.00;99.90;;;-141.84;48.83;19653.28;5071279;28;20254;-59
2022/06/08 08:05:23;;;;;;;2.13;1.10;;;22.00;99.90;;;-141.84;48.83;19675.63;5071372;28;20200;-57
2022/06/08 08:07:51;;;;;;;1.02;0.90;;;21.80;99.90;;;-141.84;49.10;19594.34;5065656;28;20236;-57
2022/06/08 08:10:23;;;;;;;1.10;0.80;;;21.60;99.90;;;-141.84;49.45;19604.50;5051335;28;20221;-60
2022/06/08 08:12:55;;;;;;;0.80;0.80;;;21.50;99.90;;;-141.84;49.21;19622.81;5050802;28;20248;-61
2022/06/08 08:15:27;;;;;;;0.88;0.88;;;21.40;99.90;;;-141.84;49.34;19651.25;5050978;28;20783;-58
2022/06/08 08:17:56;;;;;;;0.80;0.80;;;21.50;99.90;;;-141.84;50.12;19565.91;5051255;28;20309;-58
2022/06/08 08:20:28;;;;;;;1.30;0.90;;;21.60;99.90;;;-141.84;49.03;19598.41;5051409;28;20211;-58
2022/06/08 08:22:58;;;;;;;1.08;0.88;;;21.50;99.90;;;-141.84;49.35;19588.25;5051320;28;20253;-58
2022/06/08 08:25:28;;;;;;;1.05;0.90;;;21.40;99.90;;;-141.84;49.75;19594.34;5051075;28;20304;-57
2022/06/08 08:27:58;;;;;;;0.75;0.70;;;21.40;99.90;;;-141.84;49.72;19586.22;5070614;28;20627;-53
2022/06/08 08:30:34;;;;;;;1.15;0.93;;;21.40;99.90;;;-141.84;50.43;19630.94;5071097;28;20308;-59
2022/06/08 08:33:03;;;;;;;1.63;1.02;;;21.60;99.90;;;-141.84;49.07;19632.97;5070825;28;20232;-56
2022/06/08 08:35:31;;;;;;;1.05;0.95;;;21.80;99.90;;;-141.84;48.99;19594.34;5070850;28;20629;-56
2022/06/08 08:38:00;;;;;;;0.95;0.95;;;21.70;99.90;;;-141.84;49.06;19630.94;5068269;28;20201;-57
2022/06/08 08:40:46;;;;;;;1.35;1.10;;;21.70;99.90;;;-141.84;47.88;19661.41;5070204;28;20235;-59
2022/06/08 08:43:18;;;;;;;1.55;1.00;;;21.80;99.90;;;-141.84;48.15;19632.97;5070569;28;20686;-55
2022/06/08 08:46:06;;;;;;;0.90;0.90;;;21.70;99.90;;;-141.84;49.21;19681.75;5070832;28;20228;-56
2022/06/08 08:48:47;;;;;;;0.85;0.85;;;21.80;99.90;;;-141.84;48.05;19712.22;5070523;28;20228;-57
2022/06/08 08:51:25;;;;;;;1.05;0.90;;;21.90;99.90;;;-141.84;48.29;19679.72;5070577;28;20225;-57
2022/06/08 08:54:19;;;;;;;0.88;0.88;;;21.90;99.90;;;-141.84;48.27;19667.50;5070610;28;20236;-56
2022/06/08 08:56:47;;;;;;;1.08;0.85;;;21.90;99.90;;;-141.84;47.89;19700.03;5070358;28;20304;-55
2022/06/08 08:59:19;;;;;;;1.08;1.02;;;21.80;99.90;;;-141.84;47.65;19708.16;5070541;28;20205;-58
2022/06/08 09:01:52;;;;;;;0.80;0.80;;;21.90;99.90;;;-141.84;47.02;19734.56;5070584;28;20205;-58
2022/06/08 09:04:31;;;;;;;0.75;0.75;;;22.00;99.90;;;-141.84;46.65;19746.78;5049483;28;20225;-57
2022/06/08 09:07:12;;;;;;;1.30;0.90;;;22.10;99.90;;;-141.84;46.91;19726.44;5050169;28;20780;-61
2022/06/08 09:09:40;;;;;;;1.85;0.90;;;22.20;99.90;;;-141.84;46.35;19726.44;5050124;28;20344;-58
2022/06/08 09:12:14;;;;;;;2.35;1.00;;;22.10;99.90;;;-141.84;46.11;19777.25;5049877;28;20661;-58
2022/06/08 09:15:01;;;;;;;0.70;0.70;;;22.20;99.90;;;-141.84;47.09;19728.47;5050179;28;20229;-59
2022/06/08 09:17:37;;;;;;;3.08;1.10;;;22.20;99.90;;;-141.84;47.46;19740.69;5050292;28;20306;-61
2022/06/08 09:20:27;;;;;;;1.48;1.10;;;22.30;99.90;;;-141.84;46.98;19761.00;5050480;28;20644;-59
2022/06/08 09:22:58;;;;;;;1.10;1.00;;;22.40;99.90;;;-141.84;45.91;19834.16;5050585;28;20300;-58
2022/06/08 09:25:31;;;;;;;2.08;0.93;;;22.60;99.90;;;-141.84;45.47;19858.56;5050276;28;20277;-59
2022/06/08 09:28:00;;;;;;;0.70;0.70;;;22.60;99.90;;;-141.84;45.54;19809.78;5050193;28;20248;-59
2022/06/08 09:30:32;;;;;;;1.10;1.00;;;22.60;99.90;;;-141.84;45.87;19801.66;5054124;28;20667;-58
2022/06/08 09:33:24;;;;;;;0.85;0.80;;;22.60;99.90;;;-141.84;45.79;19791.47;5070281;28;20252;-59
2022/06/08 09:35:57;;;;;;;0.85;0.85;;;22.60;99.90;;;-141.84;45.95;19805.72;5069984;28;20220;-58
2022/06/08 09:38:29;;;;;;;1.00;0.90;;;22.60;99.90;;;-141.84;45.99;19807.75;5070289;28;20228;-55
2022/06/08 09:41:10;;;;;;;1.02;0.80;;;22.60;99.90;;;-141.84;45.76;19870.75;5070899;28;20656;-57
2022/06/08 09:44:15;;;;;;;0.85;0.70;;;22.80;99.90;;;-141.84;45.26;19848.38;5070030;28;20761;-58
2022/06/08 09:53:05;;;;;;;1.42;1.02;;;23.30;99.90;;;-141.84;43.68;19986.59;5070319;28;20560;-56
2022/06/08 09:55:55;;;;;;;1.35;1.17;;;23.40;99.90;;;-141.84;42.39;20006.91;5069493;28;20712;-57
2022/06/08 09:58:49;;;;;;;2.55;0.98;;;23.50;99.90;;;-141.84;42.44;20069.94;5069116;28;20234;-56
2022/06/08 10:01:30;;;;;;;2.92;0.95;;;23.60;99.90;;;-141.84;42.24;20076.03;5070148;28;20308;-57
2022/06/08 10:04:15;;;;;;;1.10;1.00;;;23.90;99.90;;;-141.84;41.35;20084.16;5069819;28;20605;-57
2022/06/08 10:06:59;;;;;;;1.00;0.90;;;23.90;99.90;;;-141.84;41.71;20078.06;5069970;28;20303;-58
2022/06/08 10:09:51;;;;;;;1.10;1.00;;;23.80;99.90;;;-141.84;41.31;20090.25;5053020;28;20227;-60
2022/06/08 10:12:32;;;;;;;1.17;1.08;;;23.80;99.90;;;-141.84;40.85;20153.25;5049333;28;20245;-59
2022/06/08 10:15:09;;;;;;;1.35;0.93;;;23.90;99.90;;;-141.84;41.03;20124.81;5051818;28;20299;-58
2022/06/08 10:17:44;;;;;;;1.58;1.10;;;23.80;99.90;;;-141.84;41.66;20065.84;5053651;28;20299;-58
2022/06/08 10:21:09;;;;;;;1.42;1.33;;;23.70;99.90;;;-141.84;41.94;20047.56;5053315;28;20294;-58
2022/06/08 10:23:56;;;;;;;1.27;1.17;;;23.60;99.90;;;-141.84;41.94;20049.59;5052581;28;20343;-57
2022/06/08 10:26:34;;;;;;;0.98;0.98;;;23.50;99.90;;;-141.84;42.54;20015.03;5053420;28;20566;-58
2022/06/08 10:29:14;;;;;;;1.02;1.02;;;23.50;99.90;;;-141.84;41.22;20128.88;5073385;28;20187;-56
2022/06/08 10:31:51;;;;;;;1.25;0.95;;;23.80;99.90;;;-141.84;41.00;20204.06;5072737;28;20219;-55
2022/06/08 10:34:23;;;;;;;2.25;1.05;;;24.00;99.90;;;-141.84;39.46;20218.31;5072455;28;20220;-58
2022/06/08 10:36:58;;;;;;;3.33;1.02;;;24.30;99.90;;;-141.84;40.62;20171.56;5070192;28;20220;-56
2022/06/08 10:39:28;;;;;;;1.25;0.90;;;24.20;99.90;;;-141.84;39.72;20244.72;5073194;28;20274;-57
2022/06/08 10:42:40;;;;;;;0.95;0.95;;;24.30;99.90;;;-141.84;39.52;20246.75;5072690;28;20224;-58